createdAt,value
2022-12-14T00:00:58.696Z,96493.50
2022-12-14T00:03:25.478Z,96502.91
2022-12-14T00:05:52.041Z,96481.25
2022-12-14T00:08:18.609Z,96479.19
2022-12-14T00:10:45.133Z,96491.13
2022-12-14T00:13:14.760Z,96496.69
2022-12-14T00:15:42.401Z,96493.19
2022-12-14T00:18:10.884Z,96479.81
2022-12-14T00:20:37.389Z,96509.72
2022-12-14T00:23:04.548Z,96518.56
2022-12-14T00:25:30.983Z,96476.28
2022-12-14T00:27:57.451Z,96448.28
2022-12-14T00:30:23.933Z,96445.91
2022-12-14T00:32:50.465Z,96449.19
2022-12-14T00:35:17.812Z,96432.84
2022-12-14T00:37:44.716Z,96359.03
2022-12-14T00:40:15.638Z,96337.66
2022-12-14T00:42:42.109Z,96346.38
2022-12-14T00:45:08.890Z,96354.91
2022-12-14T00:47:40.586Z,96340.19
2022-12-14T00:50:07.680Z,96330.22
2022-12-14T00:52:34.175Z,96356.25
2022-12-14T00:55:00.722Z,96354.25
2022-12-14T00:57:28.663Z,96327.66
2022-12-14T00:59:55.166Z,96372.00
2022-12-14T01:02:22.358Z,96422.28
2022-12-14T01:04:48.878Z,96443.88
2022-12-14T01:07:15.397Z,96445.75
2022-12-14T01:09:45.117Z,96445.75
2022-12-14T01:12:12.186Z,96431.19
2022-12-14T01:14:39.167Z,96405.03
2022-12-14T01:17:07.092Z,96352.69
2022-12-14T01:19:36.652Z,96352.69
2022-12-14T01:22:03.152Z,96323.25
2022-12-14T01:24:29.612Z,96292.84
2022-12-14T01:26:56.072Z,96272.22
2022-12-14T01:29:22.546Z,96304.75
2022-12-14T01:31:49.116Z,96280.81
2022-12-14T01:34:15.728Z,96388.91
2022-12-14T01:36:42.202Z,96466.91
2022-12-14T01:39:13.596Z,96470.97
2022-12-14T01:41:40.231Z,96495.66
2022-12-14T01:44:10.124Z,96535.91
2022-12-14T01:46:45.721Z,96482.09
2022-12-14T01:49:21.221Z,96455.00
2022-12-14T01:51:54.668Z,96387.91
2022-12-14T01:54:21.261Z,96349.75
2022-12-14T01:56:48.398Z,96369.25
2022-12-14T01:59:17.226Z,96424.16
2022-12-14T02:01:43.820Z,96420.06
2022-12-14T02:04:11.288Z,96436.06
2022-12-14T02:06:39.513Z,96429.91
2022-12-14T02:09:08.347Z,96423.34
2022-12-14T02:11:49.366Z,96479.72
2022-12-14T02:14:15.907Z,96504.03
2022-12-14T02:16:43.195Z,96506.94
2022-12-14T02:19:09.790Z,96477.00
2022-12-14T02:21:48.072Z,96421.31
2022-12-14T02:24:23.443Z,96374.47
2022-12-14T02:27:06.677Z,96312.63
2022-12-14T02:29:48.517Z,96289.16
2022-12-14T02:32:14.930Z,96350.16
2022-12-14T02:34:47.282Z,96361.88
2022-12-14T02:37:22.568Z,96350.63
2022-12-14T02:40:01.060Z,96388.53
2022-12-14T02:42:46.325Z,96426.34
2022-12-14T02:45:35.288Z,96475.38
2022-12-14T02:48:06.501Z,96495.56
2022-12-14T02:50:48.613Z,96504.22
2022-12-14T02:53:24.442Z,96486.59
2022-12-14T02:55:52.256Z,96400.94
2022-12-14T02:58:38.970Z,96372.25
2022-12-14T03:01:08.388Z,96357.28
2022-12-14T03:03:35.001Z,96435.38
2022-12-14T03:06:04.140Z,96478.28
2022-12-14T03:08:34.931Z,96472.00
2022-12-14T03:11:04.135Z,96431.34
2022-12-14T03:13:31.115Z,96396.41
2022-12-14T03:16:21.741Z,96365.34
2022-12-14T03:19:01.698Z,96393.22
2022-12-14T03:21:32.106Z,96364.81
2022-12-14T03:24:01.423Z,96366.94
2022-12-14T03:26:33.066Z,96367.84
2022-12-14T03:29:15.618Z,96342.03
2022-12-14T03:31:48.989Z,96307.63
2022-12-14T03:34:17.555Z,96305.69
2022-12-14T03:37:02.724Z,96333.16
2022-12-14T03:39:32.882Z,96351.56
2022-12-14T03:42:05.362Z,96353.34
2022-12-14T03:44:40.397Z,96336.41
2022-12-14T03:47:26.488Z,96326.75
2022-12-14T03:49:58.973Z,96328.47
2022-12-14T03:52:28.280Z,96382.41
2022-12-14T03:54:54.703Z,96403.06
2022-12-14T03:57:35.126Z,96459.66
2022-12-14T04:00:04.473Z,96513.31
2022-12-14T04:02:41.154Z,96539.25
2022-12-14T04:05:16.309Z,96570.41
2022-12-14T04:08:01.277Z,96563.59
2022-12-14T04:10:50.122Z,96538.09
2022-12-14T04:13:38.271Z,96554.44
2022-12-14T04:16:28.021Z,96574.50
2022-12-14T04:19:00.301Z,96580.66
2022-12-14T04:21:48.006Z,96577.34
2022-12-14T04:24:53.284Z,96542.44
2022-12-14T04:27:23.976Z,96519.91
2022-12-14T04:29:59.199Z,96521.81
2022-12-14T04:32:25.670Z,96533.19
2022-12-14T04:34:55.074Z,96549.22
2022-12-14T04:37:22.605Z,96547.28
2022-12-14T04:39:52.140Z,96542.28
2022-12-14T04:42:21.289Z,96542.06
2022-12-14T04:44:50.461Z,96548.06
2022-12-14T04:47:20.298Z,96547.13
2022-12-14T04:49:46.871Z,96531.22
2022-12-14T04:52:30.533Z,96517.53
2022-12-14T04:55:01.184Z,96508.84
2022-12-14T04:57:33.848Z,96475.50
2022-12-14T05:00:00.946Z,96473.00
2022-12-14T05:02:42.936Z,96455.06
2022-12-14T05:05:12.590Z,96460.25
2022-12-14T05:08:02.754Z,96470.47
2022-12-14T05:10:41.504Z,96466.84
2022-12-14T05:13:22.766Z,96540.34
2022-12-14T05:15:54.083Z,96565.97
2022-12-14T05:18:23.113Z,96567.53
2022-12-14T05:20:50.090Z,96555.50
2022-12-14T05:23:16.963Z,96536.59
2022-12-14T05:25:43.758Z,96516.97
2022-12-14T05:28:11.205Z,96490.81
2022-12-14T05:30:38.132Z,96442.66
2022-12-14T05:33:04.689Z,96385.59
2022-12-14T05:35:33.279Z,96430.44
2022-12-14T05:38:00.105Z,96400.88
2022-12-14T05:40:26.645Z,96395.31
2022-12-14T05:43:02.909Z,96443.38
2022-12-14T05:45:29.373Z,96359.78
2022-12-14T05:47:55.810Z,96308.56
2022-12-14T05:50:22.282Z,96329.91
2022-12-14T05:52:50.835Z,96379.88
2022-12-14T05:55:17.450Z,96387.34
2022-12-14T05:57:43.892Z,96376.13
2022-12-14T06:00:12.910Z,96357.69
2022-12-14T06:02:39.433Z,96354.88
2022-12-14T06:05:05.999Z,96335.19
2022-12-14T06:07:32.484Z,96287.50
2022-12-14T06:09:58.986Z,96285.94
2022-12-14T06:12:26.214Z,96300.00
2022-12-14T06:14:53.466Z,96286.25
2022-12-14T06:17:20.597Z,96238.28
2022-12-14T06:19:49.931Z,96208.28
2022-12-14T06:22:16.821Z,96215.16
2022-12-14T06:24:45.762Z,96211.22
2022-12-14T06:27:12.230Z,96202.66
2022-12-14T06:29:38.670Z,96242.91
2022-12-14T06:32:05.302Z,96316.19
2022-12-14T06:34:35.374Z,96359.88
2022-12-14T06:37:06.327Z,96367.44
2022-12-14T06:39:32.889Z,96370.50
2022-12-14T06:41:59.363Z,96352.41
2022-12-14T06:44:25.912Z,96367.88
2022-12-14T06:46:54.699Z,96372.81
2022-12-14T06:49:23.779Z,96374.06
2022-12-14T06:51:50.387Z,96372.22
2022-12-14T06:54:17.283Z,96344.06
2022-12-14T06:56:44.741Z,96319.22
2022-12-14T06:59:11.976Z,96282.78
2022-12-14T07:01:39.222Z,96314.59
2022-12-14T07:04:06.615Z,96380.41
2022-12-14T07:06:34.703Z,96393.44
2022-12-14T07:09:01.700Z,96375.03
2022-12-14T07:11:31.295Z,96355.97
2022-12-14T07:14:00.709Z,96362.38
2022-12-14T07:16:29.551Z,96382.25
2022-12-14T07:18:57.262Z,96381.41
2022-12-14T07:21:24.610Z,96383.44
2022-12-14T07:23:56.058Z,96347.41
2022-12-14T07:26:23.555Z,96276.56
2022-12-14T07:28:50.778Z,96257.53
2022-12-14T07:31:25.427Z,96286.84
2022-12-14T07:33:52.620Z,96326.47
2022-12-14T07:36:20.213Z,96307.94
2022-12-14T07:38:48.324Z,96291.47
2022-12-14T07:41:21.811Z,96286.63
2022-12-14T07:43:49.767Z,96390.34
2022-12-14T07:46:18.221Z,96439.56
2022-12-14T07:48:47.649Z,96426.06
2022-12-14T07:51:15.488Z,96334.84
2022-12-14T07:53:41.997Z,96305.41
2022-12-14T07:56:09.638Z,96354.97
2022-12-14T07:58:36.487Z,96402.56
2022-12-14T08:01:11.337Z,96428.75
2022-12-14T08:03:38.638Z,96447.66
2022-12-14T08:06:05.726Z,96472.91
2022-12-14T08:08:33.013Z,96424.84
2022-12-14T08:10:59.743Z,96358.66
2022-12-14T08:13:26.613Z,96391.75
2022-12-14T08:15:54.108Z,96376.38
2022-12-14T08:18:21.601Z,96388.63
2022-12-14T08:20:54.414Z,96414.00
2022-12-14T08:23:21.377Z,96474.03
2022-12-14T08:25:52.606Z,96506.69
2022-12-14T08:28:19.046Z,96437.78
2022-12-14T08:30:45.687Z,96462.28
2022-12-14T08:33:12.736Z,96476.31
2022-12-14T08:35:39.234Z,96493.75
2022-12-14T08:38:05.726Z,96432.63
2022-12-14T08:40:34.465Z,96424.72
2022-12-14T08:43:00.927Z,96472.72
2022-12-14T08:45:27.465Z,96389.53
2022-12-14T08:47:56.717Z,96354.75
2022-12-14T08:50:23.162Z,96367.34
2022-12-14T08:52:49.705Z,96399.97
2022-12-14T08:55:16.291Z,96402.88
2022-12-14T08:57:42.863Z,96483.72
2022-12-14T09:00:10.388Z,96492.38
2022-12-14T09:02:37.003Z,96483.19
2022-12-14T09:05:03.866Z,96529.06
2022-12-14T09:07:30.711Z,96532.78
2022-12-14T09:09:57.224Z,96520.03
2022-12-14T09:12:23.874Z,96531.69
2022-12-14T09:14:51.430Z,96515.66
2022-12-14T09:17:19.397Z,96460.16
2022-12-14T09:19:46.038Z,96466.53
2022-12-14T09:22:14.059Z,96438.78
2022-12-14T09:24:40.550Z,96386.53
2022-12-14T09:27:09.066Z,96395.88
2022-12-14T09:29:35.615Z,96370.13
2022-12-14T09:32:02.145Z,96341.88
2022-12-14T09:34:29.304Z,96393.63
2022-12-14T09:36:55.738Z,96439.28
2022-12-14T09:39:22.187Z,96482.72
2022-12-14T09:42:00.763Z,96481.94
2022-12-14T09:44:33.598Z,96417.66
2022-12-14T09:47:00.005Z,96368.38
2022-12-14T09:49:31.154Z,96341.88
2022-12-14T09:52:00.301Z,96300.22
2022-12-14T09:54:29.344Z,96340.41
2022-12-14T09:56:57.853Z,96413.06
2022-12-14T09:59:26.631Z,96462.38
2022-12-14T10:02:31.044Z,96485.41
2022-12-14T10:05:06.413Z,96478.97
2022-12-14T10:07:50.195Z,96496.09
2022-12-14T10:10:39.721Z,96492.59
2022-12-14T10:13:15.466Z,96470.44
2022-12-14T10:15:50.226Z,96405.91
2022-12-14T10:18:57.136Z,96349.91
2022-12-14T10:21:15.252Z,96344.94
2022-12-14T10:23:45.695Z,96412.53
2022-12-14T10:26:18.563Z,96429.97
2022-12-14T10:29:00.940Z,96447.22
2022-12-14T10:31:31.213Z,96454.38
2022-12-14T10:33:59.930Z,96445.94
2022-12-14T10:36:28.375Z,96416.34
2022-12-14T10:38:54.846Z,96388.31
2022-12-14T10:41:21.264Z,96403.25
2022-12-14T10:44:06.528Z,96424.72
2022-12-14T10:46:35.908Z,96419.16
2022-12-14T10:49:05.194Z,96417.78
2022-12-14T10:51:37.299Z,96410.16
2022-12-14T10:54:17.762Z,96388.81
2022-12-14T10:56:49.808Z,96317.53
2022-12-14T10:59:32.220Z,96324.97
2022-12-14T11:02:17.736Z,96344.41
2022-12-14T11:04:49.481Z,96315.63
2022-12-14T11:07:16.887Z,96257.59
2022-12-14T11:09:43.967Z,96271.88
2022-12-14T11:12:13.266Z,96279.34
2022-12-14T11:15:00.732Z,96289.88
2022-12-14T11:17:41.744Z,96290.69
2022-12-14T11:20:20.674Z,96289.66
2022-12-14T11:22:57.459Z,96277.41
2022-12-14T11:25:28.746Z,96258.59
2022-12-14T11:27:55.919Z,96262.88
2022-12-14T11:30:22.374Z,96269.84
2022-12-14T11:32:49.231Z,96268.53
2022-12-14T11:35:17.435Z,96264.41
2022-12-14T11:37:43.919Z,96301.34
2022-12-14T11:40:18.934Z,96310.25
2022-12-14T11:42:52.735Z,96333.28
2022-12-14T11:45:19.192Z,96338.72
2022-12-14T11:47:45.684Z,96295.88
2022-12-14T11:50:25.246Z,96237.81
2022-12-14T11:52:51.716Z,96226.06
2022-12-14T11:55:26.697Z,96222.06
2022-12-14T11:57:59.980Z,96279.28
2022-12-14T12:00:26.653Z,96332.44
2022-12-14T12:03:11.959Z,96333.06
2022-12-14T12:05:40.505Z,96316.94
2022-12-14T12:08:17.526Z,96337.00
2022-12-14T12:10:50.026Z,96326.28
2022-12-14T12:13:21.394Z,96312.50
2022-12-14T12:15:53.611Z,96293.97
2022-12-14T12:18:20.770Z,96296.66
2022-12-14T12:20:47.268Z,96286.75
2022-12-14T12:23:18.108Z,96289.03
2022-12-14T12:25:48.099Z,96317.38
2022-12-14T12:28:20.082Z,96337.97
2022-12-14T12:30:49.948Z,96360.91
2022-12-14T12:33:36.698Z,96342.56
2022-12-14T12:36:04.637Z,96334.81
2022-12-14T12:38:31.397Z,96333.63
2022-12-14T12:41:06.159Z,96346.34
2022-12-14T12:43:39.505Z,96339.56
2022-12-14T12:46:17.095Z,96334.13
2022-12-14T12:48:46.799Z,96325.91
2022-12-14T12:51:19.530Z,96336.75
2022-12-14T12:53:48.097Z,96314.78
2022-12-14T12:56:21.701Z,96320.38
2022-12-14T12:58:52.817Z,96417.13
2022-12-14T13:01:34.616Z,96494.75
2022-12-14T13:04:03.214Z,96518.38
2022-12-14T13:06:40.595Z,96514.47
2022-12-14T13:09:16.787Z,96483.13
2022-12-14T13:11:43.998Z,96463.13
2022-12-14T13:14:34.693Z,96447.41
2022-12-14T13:17:04.611Z,96403.94
2022-12-14T13:19:50.388Z,96405.06
2022-12-14T13:22:22.758Z,96406.84
2022-12-14T13:24:58.951Z,96377.91
2022-12-14T13:27:44.053Z,96359.75
2022-12-14T13:30:21.954Z,96387.31
2022-12-14T13:32:51.665Z,96366.19
2022-12-14T13:35:36.698Z,96346.00
2022-12-14T13:38:21.437Z,96324.19
2022-12-14T13:41:00.090Z,96329.88
2022-12-14T13:43:41.538Z,96331.00
2022-12-14T13:46:16.535Z,96469.88
2022-12-14T13:48:44.351Z,96435.16
2022-12-14T13:51:20.506Z,96419.13
2022-12-14T13:53:50.529Z,96398.88
2022-12-14T13:56:26.451Z,96385.06
2022-12-14T13:59:00.253Z,96393.44
2022-12-14T14:01:45.921Z,96450.81
2022-12-14T14:04:15.280Z,96435.97
2022-12-14T14:06:41.902Z,96410.91
2022-12-14T14:09:26.567Z,96456.38
2022-12-14T14:11:56.628Z,96411.16
2022-12-14T14:14:23.130Z,96460.84
2022-12-14T14:17:01.764Z,96534.56
2022-12-14T14:19:35.014Z,96539.25
2022-12-14T14:22:26.573Z,96518.34
2022-12-14T14:24:57.282Z,96466.00
2022-12-14T14:27:25.433Z,96422.09
2022-12-14T14:29:52.958Z,96399.34
2022-12-14T14:32:34.470Z,96426.19
2022-12-14T14:35:02.899Z,96427.88
2022-12-14T14:37:34.071Z,96420.78
2022-12-14T14:40:16.844Z,96461.16
2022-12-14T14:42:51.950Z,96509.72
2022-12-14T14:45:39.073Z,96502.34
2022-12-14T14:48:10.304Z,96446.63
2022-12-14T14:50:38.371Z,96448.00
2022-12-14T14:53:12.818Z,96467.78
2022-12-14T14:55:55.180Z,96395.88
2022-12-14T14:58:32.476Z,96403.28
2022-12-14T15:01:01.283Z,96348.31
2022-12-14T15:03:51.137Z,96413.84
2022-12-14T15:06:21.314Z,96437.84
2022-12-14T15:08:55.845Z,96476.69
2022-12-14T15:11:23.265Z,96490.00
2022-12-14T15:13:59.462Z,96502.56
2022-12-14T15:16:29.525Z,96482.56
2022-12-14T15:19:12.447Z,96475.09
2022-12-14T15:21:39.346Z,96430.25
2022-12-14T15:24:05.994Z,96436.59
2022-12-14T15:26:33.898Z,96481.47
2022-12-14T15:29:01.004Z,96506.41
2022-12-14T15:31:29.241Z,96517.03
2022-12-14T15:33:59.071Z,96510.47
2022-12-14T15:36:29.469Z,96490.09
2022-12-14T15:38:56.590Z,96479.91
2022-12-14T15:41:25.073Z,96438.56
2022-12-14T15:43:55.077Z,96405.22
2022-12-14T15:46:31.366Z,96375.00
2022-12-14T15:48:59.194Z,96298.84
2022-12-14T15:51:39.470Z,96300.88
2022-12-14T15:54:07.149Z,96308.09
2022-12-14T15:56:38.446Z,96316.44
2022-12-14T15:59:13.415Z,96266.41
2022-12-14T16:01:44.936Z,96233.78
2022-12-14T16:04:23.375Z,96252.34
2022-12-14T16:06:53.457Z,96275.56
2022-12-14T16:09:32.184Z,96258.78
2022-12-14T16:12:05.333Z,96268.19
2022-12-14T16:14:45.682Z,96218.59
2022-12-14T16:17:14.228Z,96247.06
2022-12-14T16:19:58.754Z,96257.50
2022-12-14T16:22:32.518Z,96272.44
2022-12-14T16:25:01.722Z,96257.47
2022-12-14T16:27:29.086Z,96270.50
2022-12-14T16:30:14.402Z,96323.44
2022-12-14T16:32:40.915Z,96339.38
2022-12-14T16:35:15.566Z,96300.56
2022-12-14T16:37:44.823Z,96289.22
2022-12-14T16:40:24.519Z,96245.09
2022-12-14T16:42:53.150Z,96265.13
2022-12-14T16:45:42.775Z,96256.59
2022-12-14T16:48:17.159Z,96239.88
2022-12-14T16:51:06.527Z,96301.31
2022-12-14T16:53:30.760Z,96440.72
2022-12-14T16:56:14.422Z,96500.09
2022-12-14T16:58:40.884Z,96514.69
2022-12-14T17:01:09.546Z,96457.34
2022-12-14T17:03:37.156Z,96432.63
2022-12-14T17:06:05.582Z,96502.16
2022-12-14T17:08:33.565Z,96529.59
2022-12-14T17:11:00.322Z,96504.28
2022-12-14T17:13:26.876Z,96473.03
2022-12-14T17:15:54.759Z,96456.44
2022-12-14T17:18:22.434Z,96461.03
2022-12-14T17:20:48.932Z,96467.28
2022-12-14T17:23:16.719Z,96458.09
2022-12-14T17:25:47.922Z,96482.78
2022-12-14T17:28:20.715Z,96451.81
2022-12-14T17:30:50.661Z,96463.59
2022-12-14T17:33:17.233Z,96455.13
2022-12-14T17:35:43.674Z,96454.72
2022-12-14T17:38:15.202Z,96462.00
2022-12-14T17:40:42.363Z,96408.25
2022-12-14T17:43:13.858Z,96393.66
2022-12-14T17:45:40.351Z,96426.44
2022-12-14T17:48:09.686Z,96465.19
2022-12-14T17:50:36.322Z,96462.22
2022-12-14T17:53:02.782Z,96457.19
2022-12-14T17:55:29.509Z,96454.13
2022-12-14T17:57:56.336Z,96418.47
2022-12-14T18:00:42.519Z,96367.28
2022-12-14T18:03:10.365Z,96334.13
2022-12-14T18:05:37.404Z,96388.31
2022-12-14T18:08:04.050Z,96400.81
2022-12-14T18:10:30.602Z,96376.38
2022-12-14T18:12:57.432Z,96460.78
2022-12-14T18:15:31.520Z,96486.88
2022-12-14T18:17:59.317Z,96455.59
2022-12-14T18:20:26.065Z,96489.47
2022-12-14T18:22:53.480Z,96475.69
2022-12-14T18:25:23.702Z,96486.72
2022-12-14T18:27:50.855Z,96526.69
2022-12-14T18:30:17.920Z,96554.13
2022-12-14T18:32:45.068Z,96532.44
2022-12-14T18:35:20.140Z,96519.22
2022-12-14T18:37:49.346Z,96465.81
2022-12-14T18:40:18.651Z,96386.34
2022-12-14T18:42:46.183Z,96382.97
2022-12-14T18:45:23.595Z,96398.34
2022-12-14T18:47:51.477Z,96388.19
2022-12-14T18:50:19.639Z,96466.72
2022-12-14T18:52:47.053Z,96510.59
2022-12-14T18:55:18.072Z,96470.91
2022-12-14T18:57:46.087Z,96467.44
2022-12-14T19:00:15.010Z,96438.09
2022-12-14T19:02:42.592Z,96461.97
2022-12-14T19:05:11.148Z,96505.94
2022-12-14T19:07:38.519Z,96446.28
2022-12-14T19:10:06.146Z,96422.47
2022-12-14T19:12:33.852Z,96444.41
2022-12-14T19:15:01.343Z,96478.78
2022-12-14T19:17:30.526Z,96489.38
2022-12-14T19:19:58.150Z,96472.75
2022-12-14T19:22:28.114Z,96445.03
2022-12-14T19:24:55.889Z,96448.25
2022-12-14T19:27:58.898Z,96434.94
2022-12-14T19:30:13.768Z,96467.00
2022-12-14T19:32:41.138Z,96395.09
2022-12-14T19:35:08.752Z,96360.81
2022-12-14T19:37:36.079Z,96446.19
2022-12-14T19:40:05.684Z,96523.03
2022-12-14T19:42:36.201Z,96561.72
2022-12-14T19:45:09.146Z,96584.25
2022-12-14T19:47:37.110Z,96599.50
2022-12-14T19:50:06.854Z,96600.75
2022-12-14T19:52:35.102Z,96596.34
2022-12-14T19:55:02.737Z,96562.50
2022-12-14T19:57:29.445Z,96495.84
2022-12-14T19:59:57.883Z,96455.34
2022-12-14T20:02:25.250Z,96474.72
2022-12-14T20:04:52.550Z,96516.34
2022-12-14T20:07:22.757Z,96531.41
2022-12-14T20:09:52.917Z,96533.88
2022-12-14T20:12:20.311Z,96525.06
2022-12-14T20:14:49.422Z,96530.69
2022-12-14T20:17:17.107Z,96534.69
2022-12-14T20:19:44.729Z,96531.41
2022-12-14T20:22:12.316Z,96512.34
2022-12-14T20:24:39.747Z,96494.81
2022-12-14T20:27:06.305Z,96440.28
2022-12-14T20:29:33.115Z,96425.91
2022-12-14T20:32:00.405Z,96403.66
2022-12-14T20:34:30.086Z,96420.81
2022-12-14T20:36:59.852Z,96418.66
2022-12-14T20:39:27.174Z,96434.16
2022-12-14T20:41:54.269Z,96441.97
2022-12-14T20:44:20.907Z,96460.06
2022-12-14T20:46:48.005Z,96471.72
2022-12-14T20:49:16.418Z,96485.44
2022-12-14T20:51:43.604Z,96489.84
2022-12-14T20:54:17.537Z,96500.16
2022-12-14T20:56:44.494Z,96482.75
2022-12-14T20:59:15.818Z,96480.94
2022-12-14T21:01:42.780Z,96466.09
2022-12-14T21:04:09.910Z,96479.34
2022-12-14T21:06:37.833Z,96445.34
2022-12-14T21:09:10.329Z,96440.31
2022-12-14T21:12:04.533Z,96437.59
2022-12-14T21:14:35.708Z,96425.13
2022-12-14T21:17:03.985Z,96418.53
2022-12-14T21:19:32.282Z,96401.34
2022-12-14T21:21:58.847Z,96420.13
2022-12-14T21:27:15.999Z,96461.44
2022-12-14T21:29:42.704Z,96449.19
2022-12-14T21:32:09.233Z,96443.28
2022-12-14T21:34:35.801Z,96401.69
2022-12-14T21:37:02.358Z,96403.72
2022-12-14T21:39:28.833Z,96449.31
2022-12-14T21:42:15.408Z,96466.44
2022-12-14T21:44:43.244Z,96515.78
2022-12-14T21:47:14.192Z,96501.50
2022-12-14T21:49:42.031Z,96501.44
2022-12-14T21:52:09.669Z,96475.13
2022-12-14T21:54:36.498Z,96460.22
2022-12-14T21:57:21.385Z,96481.16
2022-12-14T21:59:47.862Z,96498.94
2022-12-14T22:02:16.242Z,96486.56
2022-12-14T22:04:46.840Z,96457.16
2022-12-14T22:07:17.670Z,96415.84
2022-12-14T22:09:44.183Z,96426.44
2022-12-14T22:12:16.963Z,96417.97
2022-12-14T22:14:43.398Z,96413.56
2022-12-14T22:17:12.049Z,96379.66
2022-12-14T22:19:38.483Z,96337.00
2022-12-14T22:22:05.808Z,96313.66
2022-12-14T22:24:32.283Z,96343.91
2022-12-14T22:26:59.411Z,96321.72
2022-12-14T22:29:26.428Z,96301.16
2022-12-14T22:31:52.992Z,96313.00
2022-12-14T22:34:21.760Z,96322.06
2022-12-14T22:36:49.538Z,96318.00
2022-12-14T22:39:16.895Z,96302.72
2022-12-14T22:41:43.450Z,96300.09
2022-12-14T22:44:11.103Z,96293.09
2022-12-14T22:46:39.898Z,96273.59
2022-12-14T22:49:06.799Z,96258.50
2022-12-14T22:51:33.471Z,96250.13
2022-12-14T22:53:59.980Z,96223.41
2022-12-14T22:56:45.861Z,96229.66
2022-12-14T22:59:28.703Z,96205.69
2022-12-14T23:01:55.318Z,96213.16
2022-12-14T23:04:21.913Z,96205.53
2022-12-14T23:06:48.451Z,96195.13
2022-12-14T23:09:33.511Z,96176.66
2022-12-14T23:12:21.633Z,96167.66
2022-12-14T23:15:06.789Z,96166.94
2022-12-14T23:17:52.507Z,96175.53
2022-12-14T23:20:37.413Z,96172.69
2022-12-14T23:23:25.885Z,96170.97
2022-12-14T23:26:10.749Z,96158.63
2022-12-14T23:28:55.579Z,96124.16
2022-12-14T23:31:40.501Z,96105.22
2022-12-14T23:34:25.346Z,96063.97
2022-12-14T23:37:13.705Z,96076.31
2022-12-14T23:40:01.501Z,96089.06
2022-12-14T23:42:46.253Z,96072.94
2022-12-14T23:45:31.054Z,96068.66
2022-12-14T23:48:16.111Z,96081.25
2022-12-14T23:51:00.983Z,96106.84
2022-12-14T23:53:46.028Z,96127.78
2022-12-14T23:56:35.589Z,96129.44
2022-12-14T23:59:22.698Z,96159.28
